ABY115 OMAA-OMDB
Flight info
| Callsign | ABY115 |
|---|---|
| Flight time | 0h 27m |
| Altitude | 9000 |
| Route | LORID |
| Aircraft | A320/M-SDE3FGHIRWY/LB1 |
Departure
| Time | 2026-04-25 14:14 |
|---|---|
| Airport | Zayed International Airport (OMAA) |
Arrival
| Time | 2026-04-25 14:42 |
|---|---|
| Airport | Dubai International Airport (OMDB) |
| Time | Latitude | Longitude | Altitude | Speed | Heading |
|---|---|---|---|---|---|
| 2026-04-25 14:10 | 24.42032 | 54.66186 | 103 ft | 14 kts | 127° |
| 2026-04-25 14:10 | 24.41986 | 54.66253 | 103 ft | 10 kts | 126° |
| 2026-04-25 14:10 | 24.41959 | 54.66306 | 103 ft | 7 kts | 103° |
| 2026-04-25 14:10 | 24.41962 | 54.66358 | 103 ft | 7 kts | 78° |
| 2026-04-25 14:11 | 24.41975 | 54.66404 | 103 ft | 6 kts | 71° |
| 2026-04-25 14:11 | 24.42000 | 54.66464 | 103 ft | 14 kts | 71° |
| 2026-04-25 14:11 | 24.42040 | 54.66582 | 103 ft | 13 kts | 54° |
| 2026-04-25 14:11 | 24.42068 | 54.66614 | 103 ft | 0 kts | 36° |
| 2026-04-25 14:12 | 24.42074 | 54.66618 | 103 ft | 4 kts | 36° |
| 2026-04-25 14:12 | 24.42117 | 54.66655 | 103 ft | 8 kts | 38° |
| 2026-04-25 14:12 | 24.42158 | 54.66688 | 103 ft | 6 kts | 24° |
| 2026-04-25 14:13 | 24.42189 | 54.66685 | 103 ft | 4 kts | 328° |
| 2026-04-25 14:13 | 24.42214 | 54.66658 | 103 ft | 10 kts | 311° |
| 2026-04-25 14:13 | 24.42322 | 54.66511 | 103 ft | 45 kts | 308° |
| 2026-04-25 14:13 | 24.42660 | 54.66046 | 103 ft | 105 kts | 308° |
| 2026-04-25 14:14 | 24.43149 | 54.65339 | 103 ft | 146 kts | 308° |
| 2026-04-25 14:14 | 24.43858 | 54.64342 | 427 ft | 170 kts | 308° |
| 2026-04-25 14:14 | 24.44587 | 54.63318 | 1355 ft | 170 kts | 308° |
| 2026-04-25 14:14 | 24.45313 | 54.62296 | 2266 ft | 175 kts | 308° |
| 2026-04-25 14:15 | 24.46098 | 54.61190 | 2812 ft | 193 kts | 308° |
| 2026-04-25 14:15 | 24.46373 | 54.60802 | 2912 ft | 202 kts | 308° |
| 2026-04-25 14:15 | 24.47997 | 54.58513 | 3561 ft | 245 kts | 308° |
| 2026-04-25 14:15 | 24.49053 | 54.57019 | 4327 ft | 254 kts | 308° |
| 2026-04-25 14:16 | 24.50151 | 54.55472 | 5306 ft | 258 kts | 308° |
| 2026-04-25 14:16 | 24.51274 | 54.53905 | 6402 ft | 258 kts | 307° |
| 2026-04-25 14:16 | 24.52391 | 54.52347 | 7433 ft | 260 kts | 305° |
| 2026-04-25 14:16 | 24.53555 | 54.50828 | 8379 ft | 266 kts | 316° |
| 2026-04-25 14:17 | 24.55244 | 54.49899 | 9018 ft | 281 kts | 344° |
| 2026-04-25 14:17 | 24.57209 | 54.49966 | 9148 ft | 294 kts | 12° |
| 2026-04-25 14:17 | 24.59092 | 54.50802 | 9099 ft | 295 kts | 19° |
| 2026-04-25 14:17 | 24.60985 | 54.51692 | 9015 ft | 292 kts | 19° |
| 2026-04-25 14:18 | 24.62861 | 54.52555 | 8986 ft | 289 kts | 18° |
| 2026-04-25 14:18 | 24.64728 | 54.53393 | 8988 ft | 289 kts | 18° |
| 2026-04-25 14:18 | 24.66594 | 54.54207 | 8993 ft | 289 kts | 17° |
| 2026-04-25 14:18 | 24.68462 | 54.55003 | 8994 ft | 288 kts | 17° |
| 2026-04-25 14:19 | 24.70360 | 54.55799 | 8994 ft | 288 kts | 17° |
| 2026-04-25 14:19 | 24.72218 | 54.56570 | 8994 ft | 288 kts | 17° |
| 2026-04-25 14:19 | 24.74103 | 54.57344 | 9030 ft | 290 kts | 17° |
| 2026-04-25 14:19 | 24.75976 | 54.58111 | 8981 ft | 288 kts | 16° |
| 2026-04-25 14:20 | 24.77868 | 54.58884 | 8989 ft | 288 kts | 16° |
| 2026-04-25 14:20 | 24.78498 | 54.59141 | 8991 ft | 288 kts | 16° |
| 2026-04-25 14:20 | 24.81625 | 54.60418 | 8994 ft | 288 kts | 16° |
| 2026-04-25 14:20 | 24.83508 | 54.61186 | 8994 ft | 288 kts | 16° |
| 2026-04-25 14:21 | 24.85389 | 54.61953 | 8994 ft | 288 kts | 16° |
| 2026-04-25 14:21 | 24.87270 | 54.62720 | 8994 ft | 288 kts | 16° |
| 2026-04-25 14:21 | 24.89153 | 54.63488 | 8994 ft | 288 kts | 16° |
| 2026-04-25 14:21 | 24.91039 | 54.64257 | 8994 ft | 288 kts | 17° |
| 2026-04-25 14:22 | 24.92866 | 54.65111 | 8992 ft | 290 kts | 22° |
| 2026-04-25 14:22 | 24.94636 | 54.66212 | 8992 ft | 292 kts | 29° |
| 2026-04-25 14:22 | 24.96308 | 54.67485 | 8997 ft | 293 kts | 32° |
| 2026-04-25 14:22 | 24.97991 | 54.68805 | 8995 ft | 293 kts | 32° |
| 2026-04-25 14:23 | 24.99642 | 54.70108 | 8994 ft | 293 kts | 32° |
| 2026-04-25 14:23 | 25.01308 | 54.71424 | 8994 ft | 293 kts | 32° |
| 2026-04-25 14:23 | 25.02943 | 54.72717 | 8994 ft | 293 kts | 32° |
| 2026-04-25 14:23 | 25.04607 | 54.74034 | 8994 ft | 293 kts | 32° |
| 2026-04-25 14:24 | 25.06262 | 54.75343 | 8994 ft | 293 kts | 32° |
| 2026-04-25 14:24 | 25.07919 | 54.76656 | 8994 ft | 293 kts | 32° |
| 2026-04-25 14:24 | 25.09575 | 54.77968 | 8994 ft | 293 kts | 32° |
| 2026-04-25 14:24 | 25.11234 | 54.79281 | 8994 ft | 293 kts | 32° |
| 2026-04-25 14:25 | 25.12885 | 54.80577 | 8994 ft | 293 kts | 32° |
| 2026-04-25 14:25 | 25.13996 | 54.81448 | 8994 ft | 293 kts | 32° |
| 2026-04-25 14:25 | 25.15662 | 54.82796 | 8992 ft | 294 kts | 35° |
| 2026-04-25 14:25 | 25.16709 | 54.83744 | 8994 ft | 294 kts | 37° |
| 2026-04-25 14:26 | 25.18802 | 54.85689 | 8994 ft | 294 kts | 37° |
| 2026-04-25 14:26 | 25.20351 | 54.87135 | 8994 ft | 294 kts | 37° |
| 2026-04-25 14:26 | 25.21899 | 54.88580 | 8994 ft | 294 kts | 37° |
| 2026-04-25 14:26 | 25.23482 | 54.90056 | 8994 ft | 294 kts | 37° |
| 2026-04-25 14:27 | 25.25045 | 54.91514 | 8994 ft | 294 kts | 37° |
| 2026-04-25 14:27 | 25.26614 | 54.92979 | 8994 ft | 294 kts | 37° |
| 2026-04-25 14:27 | 25.28066 | 54.94582 | 8977 ft | 298 kts | 50° |
| 2026-04-25 14:27 | 25.28899 | 54.96681 | 8964 ft | 301 kts | 78° |
| 2026-04-25 14:28 | 25.28844 | 54.98982 | 8993 ft | 302 kts | 104° |
| 2026-04-25 14:28 | 25.28260 | 55.01209 | 9038 ft | 302 kts | 108° |
| 2026-04-25 14:28 | 25.27631 | 55.03434 | 9012 ft | 302 kts | 109° |
| 2026-04-25 14:28 | 25.27000 | 55.05619 | 8991 ft | 301 kts | 109° |
| 2026-04-25 14:29 | 25.26348 | 55.07841 | 8989 ft | 301 kts | 109° |
| 2026-04-25 14:29 | 25.25705 | 55.10032 | 8992 ft | 301 kts | 109° |
| 2026-04-25 14:29 | 25.25064 | 55.12214 | 8994 ft | 301 kts | 109° |
| 2026-04-25 14:29 | 25.24446 | 55.14317 | 8994 ft | 301 kts | 109° |
| 2026-04-25 14:30 | 25.23798 | 55.16524 | 8994 ft | 301 kts | 109° |
| 2026-04-25 14:30 | 25.22517 | 55.20883 | 8853 ft | 295 kts | 109° |
| 2026-04-25 14:30 | 25.21877 | 55.23039 | 8435 ft | 292 kts | 109° |
| 2026-04-25 14:31 | 25.21244 | 55.25166 | 8026 ft | 289 kts | 109° |
| 2026-04-25 14:31 | 25.20636 | 55.27223 | 7907 ft | 276 kts | 109° |
| 2026-04-25 14:31 | 25.20060 | 55.29186 | 7934 ft | 265 kts | 109° |
| 2026-04-25 14:31 | 25.19496 | 55.31137 | 7910 ft | 263 kts | 109° |
| 2026-04-25 14:32 | 25.18965 | 55.33014 | 7800 ft | 252 kts | 108° |
| 2026-04-25 14:32 | 25.18454 | 55.34842 | 7471 ft | 247 kts | 109° |
| 2026-04-25 14:32 | 25.17938 | 55.36678 | 6927 ft | 252 kts | 109° |
| 2026-04-25 14:32 | 25.17427 | 55.38496 | 6649 ft | 243 kts | 109° |
| 2026-04-25 14:33 | 25.16936 | 55.40248 | 6467 ft | 232 kts | 108° |
| 2026-04-25 14:33 | 25.16464 | 55.41900 | 6297 ft | 219 kts | 108° |
| 2026-04-25 14:33 | 25.16013 | 55.43448 | 6154 ft | 204 kts | 108° |
| 2026-04-25 14:33 | 25.15587 | 55.44883 | 5993 ft | 191 kts | 108° |
| 2026-04-25 14:34 | 25.15156 | 55.46238 | 5912 ft | 184 kts | 112° |
| 2026-04-25 14:34 | 25.14476 | 55.47428 | 5941 ft | 183 kts | 134° |
| 2026-04-25 14:34 | 25.13592 | 55.48403 | 5986 ft | 180 kts | 137° |
| 2026-04-25 14:34 | 25.12703 | 55.49396 | 6000 ft | 180 kts | 136° |
| 2026-04-25 14:35 | 25.11843 | 55.50369 | 5982 ft | 178 kts | 136° |
| 2026-04-25 14:35 | 25.10989 | 55.51335 | 5895 ft | 174 kts | 136° |
| 2026-04-25 14:35 | 25.10134 | 55.52296 | 5524 ft | 170 kts | 136° |
| 2026-04-25 14:35 | 25.09518 | 55.53353 | 4971 ft | 169 kts | 103° |
| 2026-04-25 14:36 | 25.09671 | 55.54583 | 4387 ft | 162 kts | 58° |
| 2026-04-25 14:36 | 25.10425 | 55.55452 | 3951 ft | 154 kts | 41° |
| 2026-04-25 14:36 | 25.11241 | 55.56208 | 3498 ft | 152 kts | 38° |
| 2026-04-25 14:36 | 25.12204 | 55.56655 | 2900 ft | 153 kts | 360° |
| 2026-04-25 14:37 | 25.13194 | 55.56288 | 2361 ft | 149 kts | 333° |
| 2026-04-25 14:37 | 25.14050 | 55.55643 | 1964 ft | 152 kts | 320° |
| 2026-04-25 14:37 | 25.14807 | 55.54790 | 1915 ft | 160 kts | 311° |
| 2026-04-25 14:37 | 25.15501 | 55.53814 | 1997 ft | 166 kts | 306° |
| 2026-04-25 14:38 | 25.16165 | 55.52756 | 2035 ft | 169 kts | 304° |
| 2026-04-25 14:38 | 25.16808 | 55.51663 | 2025 ft | 172 kts | 302° |
| 2026-04-25 14:38 | 25.17452 | 55.50532 | 2004 ft | 173 kts | 302° |
| 2026-04-25 14:38 | 25.18094 | 55.49388 | 1988 ft | 171 kts | 301° |
| 2026-04-25 14:39 | 25.18694 | 55.48311 | 1934 ft | 162 kts | 301° |
| 2026-04-25 14:39 | 25.19277 | 55.47263 | 1800 ft | 159 kts | 301° |
| 2026-04-25 14:39 | 25.19846 | 55.46239 | 1555 ft | 154 kts | 301° |
| 2026-04-25 14:39 | 25.20402 | 55.45237 | 1282 ft | 149 kts | 301° |
| 2026-04-25 14:40 | 25.20936 | 55.44275 | 1043 ft | 146 kts | 301° |
| 2026-04-25 14:40 | 25.21466 | 55.43320 | 840 ft | 144 kts | 301° |
| 2026-04-25 14:40 | 25.21986 | 55.42383 | 662 ft | 142 kts | 301° |
| 2026-04-25 14:40 | 25.22498 | 55.41459 | 492 ft | 141 kts | 301° |
| 2026-04-25 14:41 | 25.23013 | 55.40533 | 316 ft | 141 kts | 301° |
| 2026-04-25 14:41 | 25.23521 | 55.39617 | 132 ft | 140 kts | 301° |
| 2026-04-25 14:41 | 25.24007 | 55.38741 | 49 ft | 115 kts | 301° |
| 2026-04-25 14:41 | 25.24331 | 55.38155 | 49 ft | 69 kts | 301° |
| 2026-04-25 14:42 | 25.24522 | 55.37810 | 49 ft | 38 kts | 301° |
| 2026-04-25 14:42 | 25.24603 | 55.37665 | 49 ft | 32 kts | 301° |
| 2026-04-25 14:42 | 25.24746 | 55.37396 | 49 ft | 28 kts | 288° |
| 2026-04-25 14:42 | 25.24795 | 55.37216 | 49 ft | 19 kts | 270° |
| 2026-04-25 14:43 | 25.24795 | 55.37206 | 49 ft | 0 kts | 264° |
| 2026-04-25 14:44 | 25.24792 | 55.37190 | 49 ft | 3 kts | 261° |
| 2026-04-25 14:44 | 25.24789 | 55.37167 | 49 ft | 2 kts | 261° |
| 2026-04-25 14:44 | 25.24787 | 55.37149 | 49 ft | 3 kts | 266° |
| 2026-04-25 14:45 | 25.24787 | 55.37124 | 49 ft | 7 kts | 271° |
| 2026-04-25 14:45 | 25.24788 | 55.37040 | 49 ft | 8 kts | 271° |
| 2026-04-25 14:45 | 25.24794 | 55.36978 | 49 ft | 8 kts | 284° |
| 2026-04-25 14:45 | 25.24811 | 55.36923 | 49 ft | 7 kts | 292° |
| 2026-04-25 14:46 | 25.24830 | 55.36875 | 49 ft | 6 kts | 292° |
| 2026-04-25 14:46 | 25.24846 | 55.36831 | 49 ft | 6 kts | 284° |
| 2026-04-25 14:46 | 25.24831 | 55.36795 | 49 ft | 5 kts | 239° |
| 2026-04-25 14:46 | 25.24798 | 55.36728 | 49 ft | 14 kts | 248° |
| 2026-04-25 14:47 | 25.24809 | 55.36633 | 49 ft | 10 kts | 294° |
| 2026-04-25 14:47 | 25.24798 | 55.36600 | 49 ft | 7 kts | 214° |
| 2026-04-25 14:47 | 25.24754 | 55.36571 | 49 ft | 5 kts | 209° |
| 2026-04-25 14:47 | 25.24733 | 55.36557 | 49 ft | 0 kts | 213° |